createdAt,value
2018-05-17T00:00:59.424Z,59.31
2018-05-17T00:04:01.956Z,59.19
2018-05-17T00:07:04.440Z,58.74
2018-05-17T00:10:06.937Z,59.00
2018-05-17T00:13:09.452Z,59.38
2018-05-17T00:16:11.960Z,58.81
2018-05-17T00:19:14.488Z,58.65
2018-05-17T00:22:17.020Z,59.00
2018-05-17T00:25:19.546Z,59.33
2018-05-17T00:28:22.079Z,59.07
2018-05-17T00:31:24.606Z,59.42
2018-05-17T00:34:27.137Z,61.00
2018-05-17T00:37:29.662Z,61.39
2018-05-17T00:40:32.165Z,61.11
2018-05-17T00:43:34.669Z,60.83
2018-05-17T00:46:37.184Z,60.76
2018-05-17T00:49:39.714Z,61.87
2018-05-17T00:52:42.202Z,61.94
2018-05-17T00:55:44.678Z,61.66
2018-05-17T00:58:47.161Z,62.95
2018-05-17T01:01:49.646Z,62.44
2018-05-17T01:04:52.163Z,62.00
2018-05-17T01:07:54.717Z,62.04
2018-05-17T01:10:57.219Z,62.37
2018-05-17T01:13:59.737Z,62.84
2018-05-17T01:17:02.317Z,63.17
2018-05-17T01:20:04.829Z,63.84
2018-05-17T01:23:07.368Z,64.75
2018-05-17T01:26:09.859Z,65.41
2018-05-17T01:29:12.378Z,64.96
2018-05-17T01:32:14.913Z,66.17
2018-05-17T01:35:17.407Z,65.83
2018-05-17T01:38:26.385Z,65.33
2018-05-17T01:41:28.873Z,64.97
2018-05-17T01:44:31.392Z,65.77
2018-05-17T01:47:33.914Z,64.78
2018-05-17T01:50:37.018Z,64.92
2018-05-17T01:53:39.527Z,64.60
2018-05-17T01:56:42.011Z,64.30
2018-05-17T01:59:44.512Z,63.65
2018-05-17T02:02:47.032Z,64.64
2018-05-17T02:05:49.560Z,64.92
2018-05-17T02:08:52.072Z,64.64
2018-05-17T02:11:54.593Z,64.44
2018-05-17T02:14:57.109Z,64.32
2018-05-17T02:17:59.612Z,64.86
2018-05-17T02:21:02.143Z,64.68
2018-05-17T02:24:05.674Z,64.59
2018-05-17T02:27:08.195Z,64.09
2018-05-17T02:30:10.711Z,63.79
2018-05-17T02:33:13.247Z,63.51
2018-05-17T02:36:15.760Z,64.54
2018-05-17T02:39:18.304Z,63.63
2018-05-17T02:42:20.807Z,63.41
2018-05-17T02:45:23.324Z,63.26
2018-05-17T02:48:25.864Z,64.06
2018-05-17T02:51:28.348Z,63.94
2018-05-17T02:54:30.888Z,63.64
2018-05-17T02:57:33.376Z,64.56
2018-05-17T03:00:35.902Z,63.97
2018-05-17T03:03:38.408Z,65.30
2018-05-17T03:06:41.012Z,64.85
2018-05-17T03:09:43.511Z,65.45
2018-05-17T03:12:46.097Z,65.06
2018-05-17T03:15:48.633Z,65.25
2018-05-17T03:18:51.158Z,65.25
2018-05-17T03:21:53.650Z,65.42
2018-05-17T03:24:56.184Z,64.79
2018-05-17T03:27:58.684Z,65.04
2018-05-17T03:31:01.213Z,65.96
2018-05-17T03:34:03.779Z,67.07
2018-05-17T03:37:06.304Z,66.34
2018-05-17T03:40:08.829Z,66.70
2018-05-17T03:43:11.369Z,66.70
2018-05-17T03:46:13.869Z,66.71
2018-05-17T03:49:16.360Z,66.77
2018-05-17T03:52:18.887Z,66.31
2018-05-17T03:55:21.376Z,66.34
2018-05-17T03:58:23.902Z,67.27
2018-05-17T04:01:38.003Z,67.76
2018-05-17T04:04:52.329Z,67.76
2018-05-17T04:07:54.827Z,67.80
2018-05-17T04:10:57.349Z,68.23
2018-05-17T04:13:59.885Z,69.32
2018-05-17T04:17:02.409Z,70.08
2018-05-17T04:20:04.967Z,69.06
2018-05-17T04:23:08.180Z,68.63
2018-05-17T04:26:10.742Z,69.01
2018-05-17T04:29:13.311Z,69.30
2018-05-17T04:32:15.836Z,68.74
2018-05-17T04:35:18.365Z,68.19
2018-05-17T04:38:20.894Z,68.21
2018-05-17T04:41:23.425Z,68.43
2018-05-17T04:44:25.953Z,68.32
2018-05-17T04:47:28.480Z,67.39
2018-05-17T04:50:31.024Z,66.86
2018-05-17T04:53:33.554Z,67.50
2018-05-17T04:56:36.332Z,67.08
2018-05-17T04:59:38.857Z,67.14
2018-05-17T05:02:41.442Z,67.48
2018-05-17T05:05:44.002Z,67.18
2018-05-17T05:08:46.536Z,66.35
2018-05-17T05:11:49.052Z,66.50
2018-05-17T05:14:51.612Z,65.62
2018-05-17T05:17:54.111Z,65.26
2018-05-17T05:20:56.636Z,65.04
2018-05-17T05:23:59.173Z,65.27
2018-05-17T05:27:01.667Z,65.22
2018-05-17T05:30:04.188Z,64.60
2018-05-17T05:33:06.682Z,64.07
2018-05-17T05:36:09.217Z,63.95
2018-05-17T05:39:11.747Z,63.74
2018-05-17T05:42:14.323Z,64.19
2018-05-17T05:45:16.847Z,63.58
2018-05-17T05:48:19.348Z,63.30
2018-05-17T05:51:21.851Z,62.79
2018-05-17T05:54:24.435Z,62.98
2018-05-17T05:57:26.974Z,62.48
2018-05-17T06:00:30.150Z,62.11
2018-05-17T06:03:32.643Z,61.87
2018-05-17T06:06:35.151Z,61.69
2018-05-17T06:09:37.684Z,61.66
2018-05-17T06:12:40.189Z,61.57
2018-05-17T06:15:42.772Z,62.32
2018-05-17T06:18:45.248Z,60.85
2018-05-17T06:21:47.778Z,61.12
2018-05-17T06:24:50.294Z,60.68
2018-05-17T06:27:52.833Z,61.04
2018-05-17T06:30:55.357Z,60.79
2018-05-17T06:33:57.846Z,60.94
2018-05-17T06:37:00.369Z,60.47
2018-05-17T06:40:02.884Z,60.31
2018-05-17T06:43:05.366Z,60.18
2018-05-17T06:46:07.857Z,60.23
2018-05-17T06:49:10.389Z,58.78
2018-05-17T06:52:12.914Z,58.62
2018-05-17T06:55:15.410Z,58.12
2018-05-17T06:58:17.888Z,57.63
2018-05-17T07:01:20.398Z,56.07
2018-05-17T07:04:22.943Z,56.06
2018-05-17T07:07:25.441Z,55.18
2018-05-17T07:10:28.001Z,53.17
2018-05-17T07:13:30.576Z,51.64
2018-05-17T07:16:33.087Z,52.26
2018-05-17T07:19:35.604Z,54.70
2018-05-17T07:22:39.634Z,55.31
2018-05-17T07:25:42.137Z,55.95
2018-05-17T07:28:44.661Z,56.06
2018-05-17T07:31:47.207Z,57.06
2018-05-17T07:34:49.822Z,57.03
2018-05-17T07:37:52.410Z,57.17
2018-05-17T07:40:54.983Z,56.90
2018-05-17T07:43:57.494Z,56.98
2018-05-17T07:47:00.034Z,56.94
2018-05-17T07:50:02.546Z,56.50
2018-05-17T07:53:05.100Z,56.14
2018-05-17T07:56:07.603Z,55.66
2018-05-17T07:59:10.181Z,55.37
2018-05-17T08:02:12.760Z,55.14
2018-05-17T08:05:15.244Z,55.05
2018-05-17T08:08:17.805Z,54.61
2018-05-17T08:11:20.389Z,54.30
2018-05-17T08:14:28.299Z,53.95
2018-05-17T08:17:30.910Z,53.37
2018-05-17T08:20:35.077Z,54.11
2018-05-17T08:23:37.688Z,53.47
2018-05-17T08:26:40.193Z,53.94
2018-05-17T08:29:42.708Z,53.36
2018-05-17T08:32:45.249Z,53.48
2018-05-17T08:35:47.773Z,52.99
2018-05-17T08:38:50.311Z,52.95
2018-05-17T08:41:52.880Z,52.39
2018-05-17T08:44:55.376Z,51.72
2018-05-17T08:47:57.890Z,51.66
2018-05-17T08:51:00.396Z,51.85
2018-05-17T08:54:02.896Z,51.65
2018-05-17T08:57:05.425Z,50.34
2018-05-17T09:00:07.949Z,49.84
2018-05-17T09:03:10.490Z,49.33
2018-05-17T09:06:13.042Z,49.18
2018-05-17T09:09:15.564Z,48.22
2018-05-17T09:12:18.113Z,48.81
2018-05-17T09:15:20.636Z,48.37
2018-05-17T09:18:23.419Z,46.40
2018-05-17T09:21:25.976Z,47.18
2018-05-17T09:24:28.540Z,46.37
2018-05-17T09:27:31.079Z,46.85
2018-05-17T09:30:33.643Z,47.98
2018-05-17T09:33:36.329Z,47.86
2018-05-17T09:36:43.810Z,48.57
2018-05-17T09:39:49.701Z,47.83
2018-05-17T09:42:58.367Z,47.45
2018-05-17T09:46:00.978Z,47.80
2018-05-17T09:49:03.566Z,47.37
2018-05-17T09:52:07.561Z,48.38
2018-05-17T09:55:12.195Z,46.42
2018-05-17T09:58:15.212Z,46.37
2018-05-17T10:01:19.943Z,45.11
2018-05-17T10:04:22.559Z,45.03
2018-05-17T10:07:25.266Z,45.73
2018-05-17T10:10:27.939Z,45.43
2018-05-17T10:13:30.511Z,46.69
2018-05-17T10:16:33.161Z,47.33
2018-05-17T10:19:35.752Z,47.60
2018-05-17T10:22:38.281Z,47.76
2018-05-17T10:25:40.872Z,47.44
2018-05-17T10:28:43.409Z,47.92
2018-05-17T10:45:46.776Z,48.94
2018-05-17T10:48:49.428Z,48.61
2018-05-17T10:51:51.876Z,49.52
2018-05-17T10:54:54.408Z,48.90
2018-05-17T10:57:56.952Z,48.55
2018-05-17T11:00:59.516Z,47.51
2018-05-17T11:04:02.072Z,46.88
2018-05-17T11:07:04.580Z,46.46
2018-05-17T11:10:07.114Z,45.72
2018-05-17T11:13:09.672Z,45.54
2018-05-17T11:16:12.209Z,44.98
2018-05-17T11:19:14.732Z,46.03
2018-05-17T11:22:17.327Z,45.80
2018-05-17T11:25:19.858Z,46.92
2018-05-17T11:28:22.409Z,45.93
2018-05-17T11:31:24.938Z,46.28
2018-05-17T11:34:27.465Z,44.86
2018-05-17T11:37:29.973Z,45.00
2018-05-17T11:40:32.464Z,44.62
2018-05-17T11:43:34.979Z,44.14
2018-05-17T11:46:37.504Z,44.63
2018-05-17T11:49:39.987Z,43.75
2018-05-17T11:52:42.520Z,43.07
2018-05-17T11:55:45.046Z,42.84
2018-05-17T11:58:47.564Z,45.10
2018-05-17T12:01:50.136Z,44.66
2018-05-17T12:04:52.682Z,42.75
2018-05-17T12:07:55.184Z,42.75
2018-05-17T12:10:57.740Z,41.81
2018-05-17T12:14:02.204Z,41.68
2018-05-17T12:17:05.215Z,41.48
2018-05-17T12:20:07.766Z,41.16
2018-05-17T12:23:10.363Z,40.73
2018-05-17T12:26:13.110Z,40.46
2018-05-17T12:29:15.629Z,41.60
2018-05-17T12:32:18.170Z,42.30
2018-05-17T12:35:20.695Z,42.34
2018-05-17T12:38:23.245Z,41.41
2018-05-17T12:41:25.793Z,42.70
2018-05-17T12:44:28.351Z,42.54
2018-05-17T12:47:31.553Z,41.73
2018-05-17T12:50:34.090Z,42.79
2018-05-17T12:53:36.622Z,44.12
2018-05-17T12:56:39.188Z,43.36
2018-05-17T12:59:42.578Z,42.29
2018-05-17T13:02:45.126Z,43.98
2018-05-17T13:05:47.656Z,42.52
2018-05-17T13:08:50.768Z,43.05
2018-05-17T13:11:53.320Z,42.75
2018-05-17T13:14:55.887Z,43.92
2018-05-17T13:17:58.412Z,42.38
2018-05-17T13:21:00.996Z,42.09
2018-05-17T13:24:03.527Z,41.67
2018-05-17T13:27:06.045Z,41.29
2018-05-17T13:30:08.722Z,41.17
2018-05-17T13:33:11.166Z,40.46
2018-05-17T13:36:13.701Z,40.62
2018-05-17T13:39:16.332Z,40.78
2018-05-17T13:42:18.907Z,41.18
2018-05-17T13:45:21.522Z,40.84
2018-05-17T13:48:24.108Z,40.36
2018-05-17T13:51:26.687Z,40.71
2018-05-17T13:54:29.289Z,40.32
2018-05-17T13:57:31.849Z,41.10
2018-05-17T14:00:34.705Z,40.07
2018-05-17T14:03:37.276Z,41.69
2018-05-17T14:06:39.895Z,41.01
2018-05-17T14:09:42.557Z,40.86
2018-05-17T14:12:45.077Z,42.14
2018-05-17T14:15:47.638Z,40.09
2018-05-17T14:18:50.259Z,40.31
2018-05-17T14:21:52.972Z,41.31
2018-05-17T14:24:55.613Z,41.08
2018-05-17T14:27:58.250Z,41.80
2018-05-17T14:31:00.858Z,42.22
2018-05-17T14:34:03.669Z,42.06
2018-05-17T14:37:07.475Z,41.01
2018-05-17T14:40:10.411Z,42.53
2018-05-17T14:43:13.227Z,42.90
2018-05-17T14:46:16.108Z,42.09
2018-05-17T14:49:20.018Z,43.12
2018-05-17T14:52:22.892Z,41.65
2018-05-17T14:55:26.743Z,41.26
2018-05-17T14:58:29.468Z,40.80
2018-05-17T15:01:32.142Z,41.04
2018-05-17T15:04:34.953Z,41.22
2018-05-17T15:07:37.698Z,41.71
2018-05-17T15:10:40.276Z,42.36
2018-05-17T15:13:42.884Z,42.46
2018-05-17T15:16:45.520Z,40.90
2018-05-17T15:19:48.267Z,41.76
2018-05-17T15:22:50.857Z,41.65
2018-05-17T15:25:53.459Z,40.42
2018-05-17T15:28:56.892Z,40.73
2018-05-17T15:31:59.560Z,40.58
2018-05-17T15:35:02.175Z,40.25
2018-05-17T15:38:04.851Z,40.30
2018-05-17T15:41:07.471Z,40.44
2018-05-17T15:44:10.977Z,39.37
2018-05-17T15:47:13.690Z,40.05
2018-05-17T15:50:16.325Z,39.76
2018-05-17T15:53:19.082Z,39.38
2018-05-17T15:56:21.810Z,39.80
2018-05-17T15:59:24.472Z,39.73
2018-05-17T16:02:27.176Z,39.18
2018-05-17T16:05:29.888Z,39.63
2018-05-17T16:08:32.562Z,38.97
2018-05-17T16:11:36.617Z,39.10
2018-05-17T16:14:39.378Z,40.08
2018-05-17T16:17:43.210Z,39.12
2018-05-17T16:20:45.947Z,39.75
2018-05-17T16:23:48.744Z,39.81
2018-05-17T16:26:51.463Z,39.96
2018-05-17T16:29:54.150Z,39.77
2018-05-17T16:32:56.775Z,39.59
2018-05-17T16:35:59.306Z,40.51
2018-05-17T16:39:01.889Z,40.16
2018-05-17T16:42:04.459Z,39.81
2018-05-17T16:45:06.973Z,40.38
2018-05-17T16:48:09.675Z,39.99
2018-05-17T16:51:12.203Z,40.75
2018-05-17T16:54:14.807Z,39.93
2018-05-17T16:57:17.404Z,40.40
2018-05-17T17:00:19.982Z,40.34
2018-05-17T17:03:22.629Z,40.50
2018-05-17T17:06:25.210Z,41.48
2018-05-17T17:09:27.858Z,41.60
2018-05-17T17:12:30.482Z,41.08
2018-05-17T17:15:33.071Z,40.95
2018-05-17T17:18:35.753Z,40.80
2018-05-17T17:21:38.421Z,40.88
2018-05-17T17:24:41.324Z,41.52
2018-05-17T17:27:44.150Z,41.33
2018-05-17T17:30:46.810Z,41.52
2018-05-17T17:33:49.427Z,41.75
2018-05-17T17:36:52.052Z,42.16
2018-05-17T17:39:55.754Z,42.41
2018-05-17T17:42:58.781Z,43.10
2018-05-17T17:46:02.327Z,42.43
2018-05-17T17:49:06.010Z,42.57
2018-05-17T17:52:08.784Z,42.88
2018-05-17T17:55:11.453Z,43.60
2018-05-17T17:58:15.489Z,43.45
2018-05-17T18:01:26.566Z,43.97
2018-05-17T18:07:48.097Z,44.10
2018-05-17T18:10:50.825Z,44.56
2018-05-17T18:13:53.633Z,44.94
2018-05-17T18:16:56.508Z,44.53
2018-05-17T18:19:59.451Z,44.80
2018-05-17T18:23:02.312Z,45.26
2018-05-17T18:26:05.181Z,45.55
2018-05-17T18:29:07.915Z,45.57
2018-05-17T18:32:10.625Z,45.93
2018-05-17T18:35:13.924Z,45.34
2018-05-17T18:38:17.429Z,45.54
2018-05-17T18:41:20.242Z,46.43
2018-05-17T18:44:22.966Z,46.37
2018-05-17T18:47:25.709Z,46.28
2018-05-17T18:50:29.406Z,46.54
2018-05-17T18:53:33.807Z,46.64
2018-05-17T18:56:36.745Z,46.63
2018-05-17T18:59:39.931Z,47.10
2018-05-17T19:02:42.837Z,46.53
2018-05-17T19:05:47.689Z,47.05
2018-05-17T19:08:50.723Z,46.85
2018-05-17T19:11:53.533Z,47.48
2018-05-17T19:14:56.424Z,47.46
2018-05-17T19:18:00.885Z,47.45
2018-05-17T19:21:04.277Z,47.27
2018-05-17T19:24:06.980Z,47.29
2018-05-17T19:27:09.945Z,47.82
2018-05-17T19:30:12.772Z,47.50
2018-05-17T19:33:15.798Z,47.49
2018-05-17T19:36:18.480Z,47.75
2018-05-17T19:39:21.538Z,48.09
2018-05-17T19:42:26.573Z,47.61
2018-05-17T19:45:30.947Z,48.00
2018-05-17T19:48:33.639Z,48.08
2018-05-17T19:51:37.392Z,48.02
2018-05-17T19:54:41.906Z,48.66
2018-05-17T19:57:44.772Z,48.88
2018-05-17T20:00:47.793Z,48.55
2018-05-17T20:03:51.060Z,48.67
2018-05-17T20:06:54.585Z,49.12
2018-05-17T20:09:57.420Z,49.18
2018-05-17T20:13:00.495Z,48.92
2018-05-17T20:16:03.301Z,49.34
2018-05-17T20:19:06.617Z,49.35
2018-05-17T20:22:09.252Z,49.71
2018-05-17T20:25:12.252Z,49.69
2018-05-17T20:28:16.324Z,50.68
2018-05-17T20:31:20.873Z,51.34
2018-05-17T20:34:25.841Z,51.25
2018-05-17T20:37:28.855Z,51.31
2018-05-17T20:40:33.003Z,51.24
2018-05-17T20:43:35.593Z,51.55
2018-05-17T20:46:38.224Z,51.41
2018-05-17T20:49:41.753Z,51.83
2018-05-17T20:52:44.321Z,51.55
2018-05-17T20:55:46.980Z,52.28
2018-05-17T20:58:49.623Z,52.55
2018-05-17T21:01:52.138Z,52.67
2018-05-17T21:04:54.784Z,53.06
2018-05-17T21:07:57.352Z,52.76
2018-05-17T21:10:59.935Z,53.05
2018-05-17T21:14:02.584Z,53.30
2018-05-17T21:17:05.231Z,53.22
2018-05-17T21:20:07.788Z,53.96
2018-05-17T21:23:11.622Z,53.68
2018-05-17T21:26:15.661Z,53.62
2018-05-17T21:29:18.230Z,54.04
2018-05-17T21:32:20.812Z,54.44
2018-05-17T21:35:23.358Z,54.18
2018-05-17T21:38:27.067Z,54.61
2018-05-17T21:41:29.594Z,56.25
2018-05-17T21:44:32.142Z,55.28
2018-05-17T21:47:34.755Z,56.05
2018-05-17T21:50:37.357Z,56.25
2018-05-17T21:53:39.886Z,56.45
2018-05-17T21:56:42.491Z,56.15
2018-05-17T21:59:45.114Z,56.00
2018-05-17T22:02:47.753Z,55.88
2018-05-17T22:05:50.394Z,57.65
2018-05-17T22:08:53.068Z,56.93
2018-05-17T22:12:01.233Z,56.44
2018-05-17T22:15:04.250Z,56.38
2018-05-17T22:18:06.844Z,57.86
2018-05-17T22:21:09.452Z,56.76
2018-05-17T22:24:11.976Z,58.53
2018-05-17T22:27:14.507Z,57.71
2018-05-17T22:30:17.043Z,57.16
2018-05-17T22:33:19.611Z,57.25
2018-05-17T22:36:22.648Z,58.12
2018-05-17T22:39:25.246Z,59.29
2018-05-17T22:42:27.883Z,58.22
2018-05-17T22:45:30.458Z,57.76
2018-05-17T22:48:33.095Z,58.55
2018-05-17T22:51:35.828Z,58.01
2018-05-17T22:54:38.360Z,58.47
2018-05-17T22:57:52.696Z,57.93
2018-05-17T23:00:55.216Z,58.92
2018-05-17T23:03:57.761Z,60.03
2018-05-17T23:07:00.325Z,60.17
2018-05-17T23:10:02.884Z,60.33
2018-05-17T23:13:05.455Z,61.24
2018-05-17T23:16:08.083Z,60.22
2018-05-17T23:19:10.656Z,59.58
2018-05-17T23:22:23.826Z,59.89
2018-05-17T23:25:26.341Z,59.65
2018-05-17T23:28:28.942Z,60.89
2018-05-17T23:31:31.481Z,60.87
2018-05-17T23:34:34.010Z,60.75
2018-05-17T23:37:36.585Z,60.76
2018-05-17T23:44:18.198Z,60.87
2018-05-17T23:47:20.903Z,59.99
2018-05-17T23:50:23.469Z,61.23
2018-05-17T23:53:26.026Z,61.03
2018-05-17T23:56:28.552Z,59.95
2018-05-17T23:59:31.105Z,60.43
